Broughton, Illinois
Current Conditions -  °F | °C
As of 3:35 PM on Friday 31 Oct 2014 (Local Time) from KHSB Reporting Station
Broken Clouds Broken Clouds  
Wind Chill:   Ceiling: 6000
Heat Index:   Visibility: 10mi
Dew Point: -4°   Wind: 21mph
Humidity: 48%   Direction: 340°NNW
Pressure: 30.21"   Gusts: 38mph
Location:  37.93°N, 88.46°W
Report Text: KHSB 312035Z AUTO 34018G33KT 10SM SCT048 BKN060 07/M03 A3021 RMK AO2 T00691035
Loading
Personal Weather Stations






























Interactive Weather Map
Tropical Storm Tracking
New forecast layout! Learn more

10-Day Weather Forecast

Advertisements
Track Severe Weather on mobile